Time;durP1;ratioP1;P1;durP2;ratioP2;P2;SDS_P1;SDS_P2;PMS_P1;PMS_P2;Temp;Humidity;BMP_temperature;BMP_pressure;BME280_temperature;BME280_humidity;BME280_pressure;Samples;Min_cycle;Max_cycle;Signal;HPM_P1;HPM_P2
2022/11/16 00:02:13;;;;;;;10.87;6.63;;;12.10;99.90;;;;;;5037011;28;20229;-56
2022/11/16 00:04:40;;;;;;;7.97;6.83;;;12.10;99.90;;;;;;5051512;28;20199;-55
2022/11/16 00:07:08;;;;;;;9.60;6.60;;;12.20;99.90;;;;;;5040435;28;20230;-56
2022/11/16 00:09:35;;;;;;;9.57;6.97;;;12.10;99.90;;;;;;5039255;28;20195;-56
2022/11/16 00:12:06;;;;;;;7.77;6.17;;;12.20;99.90;;;;;;5022591;28;20631;-56
2022/11/16 00:14:34;;;;;;;7.37;6.30;;;12.10;99.90;;;;;;5038414;28;20213;-55
2022/11/16 00:17:02;;;;;;;8.47;6.43;;;12.10;99.90;;;;;;5042607;28;20202;-55
2022/11/16 00:19:29;;;;;;;9.47;6.80;;;12.10;99.90;;;;;;5022349;28;20655;-55
2022/11/16 00:21:56;;;;;;;9.23;6.60;;;12.10;99.90;;;;;;5038850;28;20581;-54
2022/11/16 00:24:23;;;;;;;7.07;6.37;;;12.20;99.90;;;;;;5038218;28;20234;-56
2022/11/16 00:26:53;;;;;;;7.20;6.07;;;12.20;99.90;;;;;;5038659;28;20231;-56
2022/11/16 00:29:24;;;;;;;11.10;6.63;;;12.20;99.90;;;;;;5038158;28;20197;-55
2022/11/16 00:31:53;;;;;;;7.97;7.03;;;12.20;99.90;;;;;;5038557;28;20234;-56
2022/11/16 00:34:21;;;;;;;8.00;6.60;;;12.20;99.90;;;;;;5037798;28;20258;-55
2022/11/16 00:36:48;;;;;;;9.20;6.93;;;12.20;99.90;;;;;;5036919;28;20211;-56
2022/11/16 00:39:17;;;;;;;7.83;6.73;;;12.20;99.90;;;;;;5035155;28;20571;-55
2022/11/16 00:41:44;;;;;;;10.20;7.20;;;12.20;99.90;;;;;;5038603;28;20215;-56
2022/11/16 00:44:11;;;;;;;8.73;6.57;;;12.20;99.90;;;;;;5041435;28;20233;-56
2022/11/16 00:46:38;;;;;;;10.37;6.93;;;12.10;99.90;;;;;;5036059;28;20233;-56
2022/11/16 00:49:05;;;;;;;8.13;6.37;;;12.10;99.90;;;;;;5035344;28;20237;-56
2022/11/16 00:51:33;;;;;;;9.93;7.33;;;12.20;99.90;;;;;;5026336;28;20327;-60
2022/11/16 00:54:01;;;;;;;8.87;6.83;;;12.10;99.90;;;;;;5060076;28;20666;-55
2022/11/16 00:56:28;;;;;;;9.13;7.00;;;12.20;99.90;;;;;;5056510;28;20936;-55
2022/11/16 00:58:54;;;;;;;7.27;6.17;;;12.20;99.90;;;;;;5058192;28;20694;-55
2022/11/16 01:01:21;;;;;;;9.73;6.90;;;12.20;99.90;;;;;;5058129;28;20216;-56
2022/11/16 01:03:48;;;;;;;8.37;6.83;;;12.20;99.90;;;;;;5050204;28;20309;-55
2022/11/16 01:06:16;;;;;;;8.17;7.03;;;12.20;99.90;;;;;;5051105;28;20200;-56
2022/11/16 01:08:44;;;;;;;8.73;7.20;;;12.20;99.90;;;;;;5048493;28;20613;-55
2022/11/16 01:14:06;;;;;;;7.77;6.77;;;12.20;99.90;;;;;;5053912;28;20779;-55
2022/11/16 01:16:33;;;;;;;8.10;6.67;;;12.20;99.90;;;;;;5051962;28;20205;-55
2022/11/16 01:19:00;;;;;;;7.97;7.03;;;12.20;99.90;;;;;;5066277;28;20344;-55
2022/11/16 01:21:27;;;;;;;9.27;7.17;;;12.20;99.90;;;;;;5051424;28;20704;-55
2022/11/16 01:23:55;;;;;;;9.30;7.57;;;12.20;99.90;;;;;;5051204;28;20280;-56
2022/11/16 01:26:23;;;;;;;9.07;6.43;;;12.30;99.90;;;;;;5050586;28;20226;-56
2022/11/16 01:28:50;;;;;;;8.03;6.50;;;12.20;99.90;;;;;;5049948;28;20221;-56
2022/11/16 01:31:17;;;;;;;7.70;6.40;;;12.30;99.90;;;;;;5049856;28;20213;-55
2022/11/16 01:33:44;;;;;;;7.73;6.93;;;12.20;99.90;;;;;;5049295;28;20209;-56
2022/11/16 01:36:13;;;;;;;9.30;6.70;;;12.20;99.90;;;;;;5047956;28;20287;-56
2022/11/16 01:38:45;;;;;;;8.43;6.10;;;12.20;99.90;;;;;;5047471;28;20208;-56
2022/11/16 01:41:17;;;;;;;8.27;6.53;;;12.20;99.90;;;;;;5051961;28;20215;-55
2022/11/16 01:44:03;;;;;;;6.43;5.60;;;12.30;99.90;;;;;;5052620;28;20304;-55
2022/11/16 01:46:31;;;;;;;7.17;6.00;;;12.30;99.90;;;;;;5049906;28;20618;-56
2022/11/16 01:49:05;;;;;;;7.57;6.30;;;12.20;99.90;;;;;;5048353;28;20253;-58
2022/11/16 01:51:33;;;;;;;6.70;5.73;;;12.30;99.90;;;;;;5050391;28;20205;-56
2022/11/16 01:54:04;;;;;;;6.43;5.80;;;12.30;99.90;;;;;;5050904;28;20296;-55
2022/11/16 01:56:34;;;;;;;7.47;6.10;;;12.30;99.90;;;;;;5050130;28;20209;-55
2022/11/16 01:59:02;;;;;;;6.73;6.03;;;12.30;99.90;;;;;;5049988;28;20234;-55
2022/11/16 02:01:29;;;;;;;9.37;6.73;;;12.30;99.90;;;;;;5052055;28;20717;-55
2022/11/16 02:03:56;;;;;;;8.60;5.67;;;12.30;99.90;;;;;;5034876;28;20200;-56
2022/11/16 02:06:25;;;;;;;7.60;6.10;;;12.20;99.90;;;;;;5051450;28;20343;-56
2022/11/16 02:12:18;;;;;;;7.67;5.90;;;12.20;99.90;;;;;;5051031;28;20211;-55
2022/11/16 02:14:54;;;;;;;9.00;6.70;;;12.20;99.90;;;;;;5048360;28;20681;-56
2022/11/16 02:17:39;;;;;;;8.77;6.10;;;12.20;99.90;;;;;;5051692;28;20299;-60
2022/11/16 02:20:15;;;;;;;7.57;6.37;;;12.20;99.90;;;;;;5049751;28;20224;-56
2022/11/16 02:23:25;;;;;;;7.27;5.93;;;12.20;99.90;;;;;;5047753;28;20204;-55
2022/11/16 02:26:34;;;;;;;7.90;6.57;;;12.20;99.90;;;;;;5051110;28;20220;-56
2022/11/16 02:29:10;;;;;;;7.03;5.93;;;12.20;99.90;;;;;;5049684;28;20280;-58
2022/11/16 02:31:45;;;;;;;8.40;6.50;;;12.20;99.90;;;;;;5048278;28;20202;-56
2022/11/16 02:34:15;;;;;;;6.90;5.83;;;12.20;99.90;;;;;;5049879;28;20738;-55
2022/11/16 02:36:46;;;;;;;6.90;5.97;;;12.20;99.90;;;;;;5050771;28;20199;-56
2022/11/16 02:39:18;;;;;;;7.50;6.20;;;12.20;99.90;;;;;;5047453;28;20758;-55
2022/11/16 02:41:48;;;;;;;11.37;6.23;;;12.30;99.90;;;;;;5051230;28;20318;-59
2022/11/16 02:44:33;;;;;;;8.63;6.10;;;12.20;99.90;;;;;;5035742;28;20952;-55
2022/11/16 02:47:05;;;;;;;8.10;5.93;;;12.20;99.90;;;;;;5048871;28;20241;-55
2022/11/16 02:49:35;;;;;;;8.93;6.57;;;12.10;99.90;;;;;;5048325;28;20720;-55
2022/11/16 02:52:03;;;;;;;8.77;7.10;;;12.10;99.90;;;;;;5045100;28;20363;-57
2022/11/16 02:54:30;;;;;;;8.67;7.07;;;12.10;99.90;;;;;;5030747;28;20201;-55
2022/11/16 02:57:03;;;;;;;8.53;6.87;;;12.10;99.90;;;;;;5028728;28;20207;-55
2022/11/16 02:59:38;;;;;;;8.03;7.03;;;12.10;99.90;;;;;;5029137;28;20202;-55
2022/11/16 03:02:10;;;;;;;8.83;7.27;;;12.10;99.90;;;;;;5033193;28;20241;-55
2022/11/16 03:04:45;;;;;;;8.97;7.40;;;12.10;99.90;;;;;;5028745;28;20202;-56
2022/11/16 03:07:15;;;;;;;7.90;6.87;;;12.10;99.90;;;;;;5028173;28;20610;-55
2022/11/16 03:09:44;;;;;;;10.30;7.00;;;12.10;99.90;;;;;;5029223;28;21176;-55
2022/11/16 03:12:17;;;;;;;8.07;6.93;;;12.10;99.90;;;;;;5027748;28;20204;-55
2022/11/16 03:14:52;;;;;;;9.47;6.53;;;12.10;99.90;;;;;;5030962;28;20644;-55
2022/11/16 03:17:28;;;;;;;10.60;7.03;;;12.10;99.90;;;;;;5032195;28;20204;-55
2022/11/16 03:20:06;;;;;;;8.70;6.83;;;12.10;99.90;;;;;;5028684;28;20203;-55
2022/11/16 03:22:50;;;;;;;9.43;7.00;;;12.10;99.90;;;;;;5026267;28;20408;-55
2022/11/16 03:25:21;;;;;;;8.17;6.60;;;12.10;99.90;;;;;;5029386;28;20208;-55
2022/11/16 03:28:11;;;;;;;7.83;6.50;;;12.10;99.90;;;;;;5027401;28;20213;-56
2022/11/16 03:30:45;;;;;;;8.63;7.10;;;12.00;99.90;;;;;;5029623;28;20210;-56
2022/11/16 03:33:26;;;;;;;9.53;6.20;;;12.10;99.90;;;;;;5030905;28;20202;-55
2022/11/16 03:36:10;;;;;;;9.40;6.57;;;12.10;99.90;;;;;;5027634;28;20283;-56
2022/11/16 03:38:39;;;;;;;7.80;6.47;;;12.00;99.90;;;;;;5026988;28;20203;-55
2022/11/16 03:41:08;;;;;;;7.73;6.60;;;12.00;99.90;;;;;;5035776;28;20694;-55
2022/11/16 03:43:37;;;;;;;9.07;7.00;;;12.00;99.90;;;;;;5033756;28;20561;-55
2022/11/16 03:46:05;;;;;;;10.60;7.07;;;11.90;99.90;;;;;;5020813;28;20727;-57
2022/11/16 03:48:34;;;;;;;7.37;6.57;;;11.90;99.90;;;;;;5034357;28;20609;-56
2022/11/16 03:51:03;;;;;;;7.70;6.33;;;11.90;99.90;;;;;;5034518;28;20206;-56
2022/11/16 03:53:30;;;;;;;8.00;5.93;;;11.90;99.90;;;;;;5033942;28;20272;-56
2022/11/16 03:55:57;;;;;;;8.20;6.27;;;11.80;99.90;;;;;;5034390;28;20203;-55
2022/11/16 03:58:23;;;;;;;7.13;5.63;;;11.70;99.90;;;;;;5031422;28;20216;-55
2022/11/16 04:00:50;;;;;;;6.10;5.30;;;11.70;99.90;;;;;;5031644;28;20200;-55
2022/11/16 04:03:17;;;;;;;7.33;6.07;;;11.70;99.90;;;;;;5032708;28;20663;-56
2022/11/16 04:25:33;;;;;;;6.00;3.80;;;11.40;99.90;;;;;;5036415;28;20220;-56
2022/11/16 04:28:12;;;;;;;6.43;3.40;;;11.40;99.90;;;;;;5035801;28;20197;-58
2022/11/16 04:39:16;;;;;;;6.90;3.33;;;11.30;99.90;;;;;;5037005;28;20343;-57
2022/11/16 04:47:05;;;;;;;3.83;2.60;;;11.20;99.90;;;;;;5037985;28;20271;-56
2022/11/16 04:47:15;;;;;;;3.50;2.70;;;11.20;99.90;;;;;;5038006;28;20679;-55
2022/11/16 04:49:42;;;;;;;3.37;2.63;;;11.10;99.90;;;;;;5038042;28;20198;-56
2022/11/16 04:52:09;;;;;;;2.53;2.33;;;11.10;99.90;;;;;;5036452;28;20680;-54
2022/11/16 04:54:36;;;;;;;3.97;2.60;;;11.00;99.90;;;;;;5034972;28;20205;-55
2022/11/16 04:57:02;;;;;;;4.73;2.33;;;11.10;99.90;;;;;;5035194;28;20202;-56
2022/11/16 04:59:29;;;;;;;4.47;2.50;;;11.00;99.90;;;;;;5034671;28;20215;-56
2022/11/16 05:02:08;;;;;;;3.57;2.00;;;11.00;99.90;;;;;;5036547;28;20216;-57
2022/11/16 05:04:36;;;;;;;4.23;2.43;;;11.00;99.90;;;;;;5038628;28;20666;-55
2022/11/16 05:07:09;;;;;;;4.80;2.13;;;10.90;99.90;;;;;;5033385;28;20201;-55
2022/11/16 05:09:41;;;;;;;2.10;1.83;;;10.90;99.90;;;;;;5036715;28;20568;-56
2022/11/16 05:12:14;;;;;;;4.37;2.40;;;10.90;99.90;;;;;;5038587;28;20198;-55
2022/11/16 05:14:41;;;;;;;3.20;1.90;;;10.90;99.90;;;;;;5037754;28;20282;-56
2022/11/16 05:17:09;;;;;;;3.77;1.87;;;10.80;99.90;;;;;;5039543;28;20714;-55
2022/11/16 05:22:21;;;;;;;3.13;2.07;;;10.80;99.90;;;;;;5039208;28;20209;-56
2022/11/16 05:24:48;;;;;;;4.10;1.60;;;10.80;99.90;;;;;;5037412;28;20539;-55
2022/11/16 05:27:17;;;;;;;3.27;1.70;;;10.70;99.90;;;;;;5039011;28;20323;-57
2022/11/16 05:29:44;;;;;;;4.20;2.17;;;10.70;99.90;;;;;;5036321;28;20227;-56
2022/11/16 05:32:12;;;;;;;4.17;1.73;;;10.80;99.90;;;;;;5036631;28;20215;-55
2022/11/16 05:34:39;;;;;;;5.97;2.00;;;10.80;99.90;;;;;;5040148;28;20207;-56
2022/11/16 05:37:06;;;;;;;5.33;1.83;;;10.70;99.90;;;;;;5036019;28;20224;-56
2022/11/16 05:39:33;;;;;;;4.40;1.93;;;10.70;99.90;;;;;;5037240;28;20232;-57
2022/11/16 05:42:00;;;;;;;5.57;1.97;;;10.60;99.90;;;;;;5040282;28;20646;-56
2022/11/16 05:44:27;;;;;;;4.77;1.87;;;10.60;99.90;;;;;;5037881;28;20752;-55
2022/11/16 05:46:54;;;;;;;5.40;1.87;;;10.60;99.90;;;;;;5031190;28;20194;-56
2022/11/16 05:49:22;;;;;;;6.60;1.70;;;10.70;99.90;;;;;;5039641;28;20202;-56
2022/11/16 05:51:49;;;;;;;6.43;1.90;;;10.50;99.90;;;;;;5036472;28;20200;-56
2022/11/16 05:54:22;;;;;;;3.70;1.53;;;10.50;99.90;;;;;;5037296;28;20292;-55
2022/11/16 05:56:49;;;;;;;4.73;1.60;;;10.50;99.90;;;;;;5038809;28;20207;-55
2022/11/16 05:59:18;;;;;;;6.43;1.70;;;10.50;99.90;;;;;;5034169;28;20608;-55
2022/11/16 06:01:45;;;;;;;3.43;1.23;;;10.50;99.90;;;;;;5039525;28;20226;-55
2022/11/16 06:04:13;;;;;;;2.43;1.53;;;10.40;99.90;;;;;;5038105;28;20295;-56
2022/11/16 06:06:40;;;;;;;3.23;1.37;;;10.40;99.90;;;;;;5038734;28;20512;-56
2022/11/16 06:09:08;;;;;;;5.07;1.60;;;10.40;99.90;;;;;;5034425;28;20266;-58
2022/11/16 06:11:36;;;;;;;3.77;1.40;;;10.30;99.90;;;;;;5038669;28;20312;-55
2022/11/16 06:14:04;;;;;;;3.97;1.40;;;10.20;99.90;;;;;;5037239;28;20289;-55
2022/11/16 06:16:31;;;;;;;3.47;1.53;;;10.10;99.90;;;;;;5037243;28;20291;-55
2022/11/16 06:18:58;;;;;;;4.67;1.83;;;10.10;99.90;;;;;;5036331;28;20287;-56
2022/11/16 06:21:25;;;;;;;3.83;1.40;;;10.20;99.90;;;;;;5038649;28;20204;-55
2022/11/16 06:23:52;;;;;;;4.43;1.60;;;10.10;99.90;;;;;;5036337;28;20648;-55
2022/11/16 06:26:19;;;;;;;3.03;1.70;;;10.10;99.90;;;;;;5035698;28;20224;-56
2022/11/16 06:28:46;;;;;;;3.67;1.57;;;10.00;99.90;;;;;;5035703;28;20296;-55
2022/11/16 06:31:12;;;;;;;8.33;1.87;;;10.00;99.90;;;;;;5033991;28;20732;-55
2022/11/16 06:33:39;;;;;;;4.60;1.73;;;10.00;99.90;;;;;;5050302;28;20207;-55
2022/11/16 06:36:06;;;;;;;4.27;1.53;;;9.90;99.90;;;;;;5030853;28;20200;-55
2022/11/16 06:38:33;;;;;;;7.50;1.80;;;9.90;99.90;;;;;;5035669;28;20228;-56
2022/11/16 06:41:00;;;;;;;4.20;2.00;;;10.00;99.90;;;;;;5034290;28;20203;-55
2022/11/16 06:43:27;;;;;;;2.37;1.57;;;9.90;99.90;;;;;;5035620;28;20209;-55
2022/11/16 06:45:57;;;;;;;3.10;2.07;;;9.80;99.90;;;;;;5037048;28;20272;-56
2022/11/16 06:48:24;;;;;;;4.73;1.80;;;9.80;99.90;;;;;;5036784;28;20279;-55
2022/11/16 06:50:51;;;;;;;3.50;1.77;;;9.90;99.90;;;;;;5015802;28;20257;-55
2022/11/16 06:53:19;;;;;;;5.40;1.60;;;9.80;99.90;;;;;;5034226;28;20735;-55
2022/11/16 06:55:54;;;;;;;10.43;2.37;;;9.80;99.90;;;;;;5034952;28;20202;-55
2022/11/16 06:58:21;;;;;;;2.40;2.00;;;9.80;99.90;;;;;;5028804;28;20269;-55
2022/11/16 07:00:48;;;;;;;5.20;2.33;;;9.70;99.90;;;;;;5019329;28;20663;-55
2022/11/16 07:03:14;;;;;;;3.73;2.20;;;9.80;99.90;;;;;;5028197;28;20554;-55
2022/11/16 07:05:41;;;;;;;5.70;2.27;;;9.80;99.90;;;;;;5027848;28;20557;-55
2022/11/16 07:08:08;;;;;;;3.63;2.57;;;9.70;99.90;;;;;;4673564;28;10000507;-54
2022/11/16 07:10:37;;;;;;;8.87;4.00;;;9.80;99.90;;;;;;5021053;28;20226;-54
2022/11/16 07:13:04;;;;;;;4.33;2.23;;;9.70;99.90;;;;;;5022420;28;20208;-55
2022/11/16 07:15:32;;;;;;;6.57;2.90;;;9.70;99.90;;;;;;5025633;28;20207;-55
2022/11/16 07:18:04;;;;;;;5.40;2.80;;;9.70;99.90;;;;;;5017887;28;20199;-55
2022/11/16 07:20:31;;;;;;;5.23;2.93;;;9.60;99.90;;;;;;5031010;28;20283;-55
2022/11/16 07:23:02;;;;;;;5.30;2.87;;;9.70;99.90;;;;;;5026097;28;20281;-54
2022/11/16 07:25:30;;;;;;;3.70;2.53;;;9.70;99.90;;;;;;5028011;28;20220;-55
2022/11/16 07:27:57;;;;;;;9.47;2.67;;;9.70;99.90;;;;;;5031320;28;20193;-55
2022/11/16 07:30:24;;;;;;;8.90;3.10;;;9.70;99.90;;;;;;5026879;28;20218;-55
2022/11/16 07:32:56;;;;;;;3.37;2.67;;;9.70;99.90;;;;;;5030047;28;20215;-55
2022/11/16 07:35:23;;;;;;;4.23;2.70;;;9.70;99.90;;;;;;5033202;28;20213;-55
2022/11/16 07:37:50;;;;;;;8.07;3.10;;;9.70;99.90;;;;;;5028675;28;20364;-54
2022/11/16 07:40:16;;;;;;;5.97;3.23;;;9.80;99.90;;;;;;5028726;28;20230;-55
2022/11/16 07:42:44;;;;;;;8.57;3.10;;;9.80;99.90;;;;;;5025804;28;20575;-55
2022/11/16 07:45:11;;;;;;;5.07;2.93;;;9.80;99.90;;;;;;5025884;28;20716;-55
2022/11/16 07:47:38;;;;;;;4.93;3.40;;;9.90;99.90;;;;;;5020616;28;20192;-57
2022/11/16 07:50:06;;;;;;;8.77;4.13;;;9.90;99.90;;;;;;5032444;28;20650;-56
2022/11/16 07:52:32;;;;;;;7.30;3.37;;;9.90;99.90;;;;;;5033056;28;20234;-55
2022/11/16 07:55:00;;;;;;;7.50;2.80;;;9.80;99.90;;;;;;5031560;28;20208;-55
2022/11/16 07:57:27;;;;;;;4.70;2.73;;;9.80;99.90;;;;;;5033083;28;20199;-54
2022/11/16 07:59:54;;;;;;;9.05;3.58;;;9.70;99.90;;;;;;5033411;28;20517;-55
2022/11/16 08:02:21;;;;;;;5.43;2.83;;;9.70;99.90;;;;;;5032498;28;20210;-55
2022/11/16 08:04:47;;;;;;;4.83;2.87;;;9.80;99.90;;;;;;5028176;28;20218;-53
2022/11/16 08:07:15;;;;;;;7.03;2.77;;;9.80;99.90;;;;;;5029468;28;20209;-55
2022/11/16 08:09:42;;;;;;;8.30;2.97;;;9.80;99.90;;;;;;5033612;28;20208;-55
2022/11/16 08:12:09;;;;;;;5.20;2.53;;;9.70;99.90;;;;;;5030472;28;21558;-53
2022/11/16 08:14:36;;;;;;;6.97;2.60;;;9.80;99.90;;;;;;5032028;28;20213;-55
2022/11/16 08:17:04;;;;;;;8.67;2.73;;;9.80;99.90;;;;;;5032122;28;20633;-57
2022/11/16 08:19:31;;;;;;;9.40;2.83;;;9.70;99.90;;;;;;5030064;28;20196;-54
2022/11/16 08:21:58;;;;;;;5.63;2.47;;;9.80;99.90;;;;;;5032140;28;20206;-55
2022/11/16 08:24:24;;;;;;;8.33;2.47;;;9.80;99.90;;;;;;5012866;28;20206;-55
2022/11/16 08:26:53;;;;;;;8.33;2.33;;;9.80;99.90;;;;;;5030141;28;20207;-55
2022/11/16 08:29:19;;;;;;;4.73;2.17;;;9.90;99.90;;;;;;4996878;28;20762;-55
2022/11/16 08:31:46;;;;;;;6.87;2.10;;;10.00;99.90;;;;;;5030985;28;20586;-54
2022/11/16 08:34:13;;;;;;;7.23;2.70;;;10.00;99.90;;;;;;5031913;28;20217;-54
2022/11/16 08:36:40;;;;;;;4.07;2.10;;;10.00;99.90;;;;;;5030852;28;20338;-55
2022/11/16 08:39:07;;;;;;;8.57;2.60;;;10.10;99.90;;;;;;5015693;28;20240;-55
2022/11/16 08:41:34;;;;;;;9.87;2.30;;;10.20;99.90;;;;;;5033682;28;20203;-54
2022/11/16 08:44:01;;;;;;;2.87;1.90;;;10.20;99.90;;;;;;5035978;28;20308;-53
2022/11/16 08:46:28;;;;;;;4.10;2.23;;;10.20;99.90;;;;;;5027085;28;20195;-55
2022/11/16 08:48:56;;;;;;;5.27;2.63;;;10.20;99.90;;;;;;5009860;28;20241;-55
2022/11/16 08:51:24;;;;;;;8.57;2.20;;;10.20;99.90;;;;;;5034063;28;20301;-55
2022/11/16 08:53:57;;;;;;;4.20;1.80;;;10.20;99.90;;;;;;5032911;28;20835;-55
2022/11/16 08:56:29;;;;;;;8.80;2.60;;;10.30;99.90;;;;;;5033152;28;20256;-54
2022/11/16 08:58:56;;;;;;;7.00;2.27;;;10.40;99.90;;;;;;5029780;28;20289;-54
2022/11/16 09:01:27;;;;;;;9.47;2.67;;;10.40;99.90;;;;;;5028420;28;20580;-54
2022/11/16 09:03:54;;;;;;;7.90;2.53;;;10.50;99.90;;;;;;5030441;28;20327;-55
2022/11/16 09:06:23;;;;;;;12.83;2.57;;;10.60;99.90;;;;;;5027621;28;20200;-54
2022/11/16 09:08:50;;;;;;;7.97;3.00;;;10.80;99.90;;;;;;5012950;28;20207;-54
2022/11/16 09:11:19;;;;;;;6.57;2.50;;;10.90;99.90;;;;;;5031845;28;20696;-54
2022/11/16 09:13:47;;;;;;;6.97;2.37;;;11.20;99.90;;;;;;5032545;28;20204;-57
2022/11/16 09:16:15;;;;;;;11.23;2.70;;;11.20;99.90;;;;;;5029754;28;20289;-55
2022/11/16 09:18:44;;;;;;;9.13;3.17;;;11.30;99.90;;;;;;5014143;28;20277;-56
2022/11/16 09:21:11;;;;;;;7.27;2.53;;;11.50;99.90;;;;;;5032053;28;20722;-61
2022/11/16 09:23:38;;;;;;;11.00;3.37;;;11.50;99.90;;;;;;5027569;28;21142;-56
2022/11/16 09:26:05;;;;;;;7.57;2.00;;;11.70;99.90;;;;;;5033593;28;20223;-53
2022/11/16 09:28:32;;;;;;;8.97;2.37;;;11.40;99.90;;;;;;5031747;28;21209;-54
2022/11/16 09:31:04;;;;;;;7.87;2.73;;;11.60;99.90;;;;;;5030117;28;20299;-54
2022/11/16 09:33:32;;;;;;;7.97;2.50;;;12.00;99.90;;;;;;5031191;28;20233;-55
2022/11/16 09:36:05;;;;;;;9.17;2.20;;;11.90;99.90;;;;;;5027108;28;20764;-55
2022/11/16 09:38:43;;;;;;;7.20;1.97;;;12.00;99.90;;;;;;5024649;28;20928;-56
2022/11/16 09:41:41;;;;;;;3.00;1.87;;;12.00;99.90;;;;;;5029270;28;20234;-56
2022/11/16 09:44:37;;;;;;;6.83;1.87;;;12.00;99.90;;;;;;5035476;28;20219;-56
2022/11/16 09:47:14;;;;;;;4.93;1.70;;;12.00;99.90;;;;;;5032612;28;20203;-55
2022/11/16 09:49:46;;;;;;;8.73;2.80;;;12.00;99.90;;;;;;5030009;28;20466;-55
2022/11/16 09:52:41;;;;;;;6.30;1.63;;;12.50;99.90;;;;;;5031765;28;20236;-56
2022/11/16 09:55:42;;;;;;;9.73;1.70;;;12.30;99.90;;;;;;5030231;28;20200;-57
2022/11/16 09:58:33;;;;;;;5.00;1.57;;;12.70;99.90;;;;;;5021162;28;20232;-56
2022/11/16 10:01:12;;;;;;;9.33;2.80;;;12.90;99.90;;;;;;5028520;28;20291;-59
2022/11/16 10:03:44;;;;;;;9.33;2.00;;;12.50;99.90;;;;;;5032425;28;20325;-56
2022/11/16 10:06:19;;;;;;;5.23;1.60;;;12.60;99.90;;;;;;5031892;28;20203;-56
2022/11/16 10:08:50;;;;;;;4.97;1.70;;;13.00;99.90;;;;;;5029154;28;20208;-56
2022/11/16 10:11:36;;;;;;;4.97;2.10;;;13.10;99.90;;;;;;5031299;28;20227;-56
2022/11/16 10:14:34;;;;;;;7.40;1.83;;;12.70;99.90;;;;;;5047321;28;20845;-56
2022/11/16 10:17:28;;;;;;;11.47;2.03;;;12.50;99.90;;;;;;5031990;28;20230;-57
2022/11/16 10:20:03;;;;;;;5.37;1.90;;;12.50;99.90;;;;;;5030522;28;20210;-57
2022/11/16 10:23:12;;;;;;;7.97;1.70;;;12.50;99.90;;;;;;5031593;28;20200;-60
2022/11/16 10:25:44;;;;;;;6.57;1.93;;;12.60;99.90;;;;;;5025038;28;20200;-57
2022/11/16 10:28:41;;;;;;;6.97;1.97;;;12.50;99.90;;;;;;5033236;28;20215;-56
2022/11/16 10:31:20;;;;;;;9.20;2.63;;;12.50;99.90;;;;;;5027970;28;20635;-56
2022/11/16 10:33:49;;;;;;;4.27;1.57;;;12.30;99.90;;;;;;5031262;28;20388;-57
2022/11/16 10:36:18;;;;;;;5.93;2.00;;;12.40;99.90;;;;;;5031117;28;20226;-57
2022/11/16 10:38:45;;;;;;;7.70;2.13;;;12.30;99.90;;;;;;5030493;28;20206;-56
2022/11/16 10:41:24;;;;;;;6.17;1.47;;;12.40;99.90;;;;;;5030387;28;20201;-55
2022/11/16 10:43:57;;;;;;;7.03;1.50;;;12.40;99.90;;;;;;5029424;28;20220;-57
2022/11/16 10:46:39;;;;;;;3.77;1.30;;;12.10;99.90;;;;;;5044172;28;20218;-56
2022/11/16 10:49:31;;;;;;;7.30;1.50;;;12.20;99.90;;;;;;5032241;28;20228;-56
2022/11/16 10:51:57;;;;;;;5.60;1.20;;;12.50;99.90;;;;;;5031939;28;20294;-57
2022/11/16 10:54:24;;;;;;;8.63;1.70;;;12.70;99.90;;;;;;5032143;28;20243;-56
2022/11/16 10:57:01;;;;;;;10.67;1.60;;;12.60;99.90;;;;;;5028115;28;20625;-57
2022/11/16 10:59:52;;;;;;;8.83;1.30;;;12.60;99.90;;;;;;5030503;28;20564;-57
2022/11/16 11:02:33;;;;;;;4.47;1.30;;;12.70;99.90;;;;;;5033467;28;20204;-56
2022/11/16 11:05:14;;;;;;;3.10;1.30;;;12.60;99.90;;;;;;5032420;28;20569;-56
2022/11/16 11:07:46;;;;;;;4.43;1.33;;;12.50;99.90;;;;;;5028517;28;20198;-57
2022/11/16 11:10:24;;;;;;;4.87;1.17;;;12.30;99.90;;;;;;5028872;28;20242;-56
2022/11/16 11:13:01;;;;;;;3.90;1.10;;;12.30;99.90;;;;;;5028685;28;20207;-56
2022/11/16 11:15:28;;;;;;;3.63;1.17;;;12.30;99.90;;;;;;5027383;28;20206;-56
2022/11/16 11:18:17;;;;;;;3.87;1.20;;;12.60;99.90;;;;;;5030753;28;20218;-57
2022/11/16 11:20:48;;;;;;;5.73;1.33;;;12.50;99.90;;;;;;5032399;28;20234;-56
2022/11/16 11:23:25;;;;;;;5.33;2.07;;;12.20;99.90;;;;;;5031837;28;20810;-61
2022/11/16 11:25:58;;;;;;;5.90;1.10;;;12.00;99.90;;;;;;5034009;28;20336;-59
2022/11/16 11:28:30;;;;;;;4.43;1.10;;;12.20;99.90;;;;;;5032892;28;20194;-57
2022/11/16 11:31:21;;;;;;;3.80;1.60;;;12.40;99.90;;;;;;5032808;28;20203;-56
2022/11/16 11:33:52;;;;;;;3.80;1.30;;;12.40;99.90;;;;;;5032970;28;20207;-59
2022/11/16 11:36:44;;;;;;;6.67;1.23;;;12.20;99.90;;;;;;5033097;28;20201;-56
2022/11/16 11:39:11;;;;;;;5.67;1.60;;;12.10;99.90;;;;;;5032168;28;20581;-59
2022/11/16 11:41:43;;;;;;;5.40;1.40;;;12.10;99.90;;;;;;5034637;28;20237;-57
2022/11/16 11:44:18;;;;;;;5.33;1.37;;;12.10;99.90;;;;;;5035124;28;20220;-57
2022/11/16 11:46:53;;;;;;;6.93;2.60;;;12.20;99.90;;;;;;5032254;28;20217;-56
2022/11/16 11:49:48;;;;;;;8.17;1.40;;;12.00;99.90;;;;;;5032907;28;20294;-56
2022/11/16 11:52:26;;;;;;;4.80;1.20;;;12.00;99.90;;;;;;5031517;28;20282;-56
2022/11/16 11:54:54;;;;;;;5.93;1.47;;;12.10;99.90;;;;;;5032439;28;20243;-56
2022/11/16 11:57:23;;;;;;;5.50;1.30;;;12.10;99.90;;;;;;5035710;28;20204;-56
2022/11/16 11:59:53;;;;;;;4.70;1.60;;;12.10;99.90;;;;;;5032386;28;20227;-56
2022/11/16 12:02:23;;;;;;;2.80;1.07;;;12.10;99.90;;;;;;5032683;28;20199;-57
2022/11/16 12:05:33;;;;;;;4.07;0.93;;;12.00;99.90;;;;;;5033024;28;20595;-55
2022/11/16 12:08:13;;;;;;;4.20;1.40;;;12.00;99.90;;;;;;5020796;28;20208;-55
2022/11/16 12:11:18;;;;;;;4.47;1.00;;;12.20;99.90;;;;;;5032748;28;20228;-55
2022/11/16 12:13:59;;;;;;;5.63;1.13;;;12.30;99.90;;;;;;5036923;28;20303;-57
2022/11/16 12:16:50;;;;;;;3.77;1.07;;;12.50;99.90;;;;;;5032318;28;20211;-55
2022/11/16 12:19:22;;;;;;;4.77;1.10;;;12.90;99.90;;;;;;5030205;28;20204;-55
2022/11/16 12:21:58;;;;;;;3.70;1.03;;;13.10;99.90;;;;;;5031909;28;20239;-55
2022/11/16 12:24:44;;;;;;;4.73;1.10;;;13.40;99.90;;;;;;5032760;28;20254;-55
2022/11/16 12:27:35;;;;;;;6.30;1.43;;;13.70;99.90;;;;;;5033677;28;20294;-56
2022/11/16 12:30:23;;;;;;;7.43;1.10;;;13.40;99.90;;;;;;5032580;28;20273;-55
2022/11/16 12:33:23;;;;;;;3.97;1.10;;;12.90;99.90;;;;;;5031154;28;20199;-56
2022/11/16 12:36:10;;;;;;;6.80;1.63;;;13.20;99.90;;;;;;5030163;28;20192;-55
2022/11/16 12:38:53;;;;;;;6.63;1.40;;;12.90;99.90;;;;;;5027749;28;20316;-54
2022/11/16 12:41:49;;;;;;;4.43;1.10;;;13.20;99.90;;;;;;5027137;28;22092;-55
2022/11/16 12:44:47;;;;;;;4.67;1.20;;;13.40;99.90;;;;;;5015235;28;20220;-54
2022/11/16 12:47:26;;;;;;;5.67;1.27;;;13.50;99.90;;;;;;5030364;28;20200;-55
2022/11/16 12:50:30;;;;;;;6.80;1.57;;;13.30;99.90;;;;;;5028840;28;20208;-54
2022/11/16 12:53:21;;;;;;;4.27;0.90;;;13.00;99.90;;;;;;5029739;28;20292;-54
2022/11/16 12:55:57;;;;;;;5.00;1.10;;;13.10;99.90;;;;;;5051048;28;20207;-56
2022/11/16 12:58:37;;;;;;;3.37;1.20;;;13.20;99.90;;;;;;5047811;28;20194;-56
2022/11/16 13:01:17;;;;;;;5.60;1.07;;;13.30;99.90;;;;;;5045818;28;20227;-55
2022/11/16 13:04:02;;;;;;;5.87;1.37;;;13.40;99.90;;;;;;5048932;28;20222;-55
2022/11/16 13:06:36;;;;;;;5.50;1.60;;;13.30;99.90;;;;;;5049315;28;20216;-54
2022/11/16 13:09:20;;;;;;;6.23;1.60;;;13.40;99.90;;;;;;5048578;28;20203;-55
2022/11/16 13:11:51;;;;;;;3.23;1.00;;;13.70;99.90;;;;;;5053378;28;20259;-55
2022/11/16 13:14:23;;;;;;;3.17;1.07;;;13.90;99.90;;;;;;5050418;28;20666;-55
2022/11/16 13:16:51;;;;;;;7.03;1.10;;;13.60;99.90;;;;;;5048645;28;20246;-56
2022/11/16 13:19:18;;;;;;;6.30;1.10;;;13.50;99.90;;;;;;5047790;28;20196;-55
2022/11/16 13:22:04;;;;;;;5.03;1.00;;;13.10;99.90;;;;;;5048370;28;20203;-61
2022/11/16 13:24:40;;;;;;;2.50;0.80;;;13.00;99.90;;;;;;5050600;28;20218;-55
2022/11/16 13:27:33;;;;;;;3.57;1.03;;;12.90;99.90;;;;;;5054457;28;20231;-56
2022/11/16 13:30:22;;;;;;;2.47;0.80;;;12.80;99.90;;;;;;5056821;28;20207;-55
2022/11/16 13:33:09;;;;;;;3.80;1.60;;;12.90;99.90;;;;;;5052229;28;20644;-54
2022/11/16 13:35:37;;;;;;;3.90;1.00;;;13.00;99.90;;;;;;5062933;28;20241;-54
2022/11/16 13:38:09;;;;;;;4.57;1.20;;;13.00;99.90;;;;;;5049722;28;20283;-58
2022/11/16 13:40:36;;;;;;;4.57;1.03;;;12.90;99.90;;;;;;5044789;28;20200;-55
2022/11/16 13:43:09;;;;;;;7.70;1.30;;;12.90;99.90;;;;;;5049975;28;20551;-55
2022/11/16 13:45:53;;;;;;;4.10;1.37;;;13.00;99.90;;;;;;5047094;28;20212;-55
2022/11/16 13:48:39;;;;;;;3.10;0.90;;;12.90;99.90;;;;;;5049459;28;20552;-53
2022/11/16 13:51:16;;;;;;;2.40;1.27;;;13.00;99.90;;;;;;5053147;28;20211;-54
2022/11/16 13:53:51;;;;;;;6.47;1.40;;;13.10;99.90;;;;;;5050147;28;20257;-54
2022/11/16 13:56:50;;;;;;;5.90;1.80;;;13.20;99.90;;;;;;5036125;28;20232;-54
2022/11/16 13:59:24;;;;;;;4.70;1.27;;;13.20;99.90;;;;;;5034646;28;20226;-54